sensor_id;sensor_type;location;lat;lon;timestamp;pressure;altitude;pressure_sealevel;temperature;humidity
52291;BME280;39663;45.432;28.050;2024-01-07T00:00:26;100229.86;;;12.47;40.60
52291;BME280;39663;45.432;28.050;2024-01-07T00:00:58;100231.53;;;12.76;40.62
52291;BME280;39663;45.432;28.050;2024-01-07T00:01:29;100231.13;;;12.54;39.73
52291;BME280;39663;45.432;28.050;2024-01-07T00:02:01;100228.44;;;12.63;38.91
52291;BME280;39663;45.432;28.050;2024-01-07T00:02:32;100229.73;;;12.24;39.81
52291;BME280;39663;45.432;28.050;2024-01-07T00:03:04;100231.67;;;12.12;40.07
52291;BME280;39663;45.432;28.050;2024-01-07T00:03:36;100231.27;;;12.20;38.88
52291;BME280;39663;45.432;28.050;2024-01-07T00:04:07;100233.83;;;11.90;39.37
52291;BME280;39663;45.432;28.050;2024-01-07T00:04:40;100237.63;;;11.69;40.08
52291;BME280;39663;45.432;28.050;2024-01-07T00:05:11;100239.10;;;11.38;40.74
52291;BME280;39663;45.432;28.050;2024-01-07T00:05:43;100242.09;;;11.35;41.07
52291;BME280;39663;45.432;28.050;2024-01-07T00:06:15;100241.30;;;11.45;40.13
52291;BME280;39663;45.432;28.050;2024-01-07T00:06:47;100248.11;;;11.43;40.91
52291;BME280;39663;45.432;28.050;2024-01-07T00:07:18;100250.27;;;11.43;40.71
52291;BME280;39663;45.432;28.050;2024-01-07T00:07:50;100251.17;;;11.37;41.46
52291;BME280;39663;45.432;28.050;2024-01-07T00:08:21;100251.56;;;11.05;41.45
52291;BME280;39663;45.432;28.050;2024-01-07T00:08:53;100251.42;;;11.59;41.26
52291;BME280;39663;45.432;28.050;2024-01-07T00:09:24;100253.53;;;11.35;42.12
52291;BME280;39663;45.432;28.050;2024-01-07T00:09:56;100250.22;;;11.59;41.27
52291;BME280;39663;45.432;28.050;2024-01-07T00:10:27;100250.90;;;11.51;41.01
52291;BME280;39663;45.432;28.050;2024-01-07T00:10:59;100249.95;;;11.56;41.97
52291;BME280;39663;45.432;28.050;2024-01-07T00:11:30;100251.76;;;11.38;41.24
52291;BME280;39663;45.432;28.050;2024-01-07T00:12:02;100249.63;;;11.73;41.31
52291;BME280;39663;45.432;28.050;2024-01-07T00:12:33;100248.33;;;11.65;40.31
52291;BME280;39663;45.432;28.050;2024-01-07T00:13:05;100249.43;;;10.82;41.52
52291;BME280;39663;45.432;28.050;2024-01-07T00:13:36;100250.57;;;10.85;41.73
52291;BME280;39663;45.432;28.050;2024-01-07T00:14:07;100252.25;;;11.28;41.95
52291;BME280;39663;45.432;28.050;2024-01-07T00:14:39;100251.69;;;10.88;41.71
52291;BME280;39663;45.432;28.050;2024-01-07T00:15:10;100253.38;;;10.88;42.13
52291;BME280;39663;45.432;28.050;2024-01-07T00:15:42;100256.92;;;10.96;41.89
52291;BME280;39663;45.432;28.050;2024-01-07T00:16:13;100256.97;;;11.01;42.40
52291;BME280;39663;45.432;28.050;2024-01-07T00:16:45;100255.67;;;10.70;41.52
52291;BME280;39663;45.432;28.050;2024-01-07T00:17:16;100257.80;;;10.95;41.63
52291;BME280;39663;45.432;28.050;2024-01-07T00:17:48;100257.57;;;10.85;41.56
52291;BME280;39663;45.432;28.050;2024-01-07T00:18:20;100260.05;;;10.14;42.69
52291;BME280;39663;45.432;28.050;2024-01-07T00:18:51;100261.01;;;9.52;43.24
52291;BME280;39663;45.432;28.050;2024-01-07T00:19:22;100261.66;;;9.72;44.56
52291;BME280;39663;45.432;28.050;2024-01-07T00:19:54;100262.57;;;10.16;44.41
52291;BME280;39663;45.432;28.050;2024-01-07T00:20:26;100262.58;;;10.40;43.81
52291;BME280;39663;45.432;28.050;2024-01-07T00:20:57;100262.90;;;10.58;43.66
52291;BME280;39663;45.432;28.050;2024-01-07T00:21:28;100264.02;;;10.69;43.25
52291;BME280;39663;45.432;28.050;2024-01-07T00:22:00;100259.81;;;10.70;41.71
52291;BME280;39663;45.432;28.050;2024-01-07T00:22:31;100260.20;;;10.23;42.94
52291;BME280;39663;45.432;28.050;2024-01-07T00:23:03;100258.34;;;10.69;42.86
52291;BME280;39663;45.432;28.050;2024-01-07T00:23:35;100258.13;;;10.60;43.14
52291;BME280;39663;45.432;28.050;2024-01-07T00:24:06;100256.70;;;10.95;43.40
52291;BME280;39663;45.432;28.050;2024-01-07T00:24:38;100254.50;;;10.88;43.42
52291;BME280;39663;45.432;28.050;2024-01-07T00:25:10;100253.94;;;10.98;43.42
52291;BME280;39663;45.432;28.050;2024-01-07T00:25:41;100253.48;;;11.12;42.36
52291;BME280;39663;45.432;28.050;2024-01-07T00:26:13;100252.30;;;10.76;43.05
52291;BME280;39663;45.432;28.050;2024-01-07T00:26:44;100254.30;;;10.94;42.17
52291;BME280;39663;45.432;28.050;2024-01-07T00:27:15;100251.17;;;11.38;42.62
52291;BME280;39663;45.432;28.050;2024-01-07T00:27:47;100254.27;;;11.51;41.91
52291;BME280;39663;45.432;28.050;2024-01-07T00:28:19;100252.56;;;11.36;42.12
52291;BME280;39663;45.432;28.050;2024-01-07T00:28:50;100247.27;;;10.86;41.77
52291;BME280;39663;45.432;28.050;2024-01-07T00:29:22;100248.14;;;10.97;42.61
52291;BME280;39663;45.432;28.050;2024-01-07T00:29:53;100245.90;;;11.24;42.33
52291;BME280;39663;45.432;28.050;2024-01-07T00:30:25;100244.12;;;11.39;42.14
52291;BME280;39663;45.432;28.050;2024-01-07T00:30:57;100239.40;;;11.74;41.98
52291;BME280;39663;45.432;28.050;2024-01-07T00:31:28;100238.49;;;11.69;41.83
52291;BME280;39663;45.432;28.050;2024-01-07T00:32:00;100233.94;;;11.59;40.49
52291;BME280;39663;45.432;28.050;2024-01-07T00:32:32;100232.49;;;11.53;40.49
52291;BME280;39663;45.432;28.050;2024-01-07T00:33:04;100229.89;;;11.66;40.41
52291;BME280;39663;45.432;28.050;2024-01-07T00:33:35;100226.29;;;11.04;40.85
52291;BME280;39663;45.432;28.050;2024-01-07T00:34:07;100229.81;;;11.04;42.03
52291;BME280;39663;45.432;28.050;2024-01-07T00:34:38;100231.78;;;11.28;41.88
52291;BME280;39663;45.432;28.050;2024-01-07T00:35:10;100232.66;;;11.39;41.87
52291;BME280;39663;45.432;28.050;2024-01-07T00:35:41;100234.78;;;11.52;41.59
52291;BME280;39663;45.432;28.050;2024-01-07T00:36:13;100234.18;;;11.65;41.66
52291;BME280;39663;45.432;28.050;2024-01-07T00:36:45;100236.67;;;11.70;41.12
52291;BME280;39663;45.432;28.050;2024-01-07T00:37:16;100234.50;;;11.36;40.35
52291;BME280;39663;45.432;28.050;2024-01-07T00:37:47;100239.23;;;11.61;41.40
52291;BME280;39663;45.432;28.050;2024-01-07T00:38:20;100241.51;;;11.71;40.10
52291;BME280;39663;45.432;28.050;2024-01-07T00:38:52;100243.12;;;11.73;40.10
52291;BME280;39663;45.432;28.050;2024-01-07T00:39:24;100239.90;;;11.38;40.65
52291;BME280;39663;45.432;28.050;2024-01-07T00:39:55;100237.31;;;11.48;40.72
52291;BME280;39663;45.432;28.050;2024-01-07T00:40:27;100238.83;;;11.33;41.12
52291;BME280;39663;45.432;28.050;2024-01-07T00:40:58;100237.57;;;11.33;41.18
52291;BME280;39663;45.432;28.050;2024-01-07T00:41:30;100236.04;;;11.22;41.42
52291;BME280;39663;45.432;28.050;2024-01-07T00:42:01;100232.10;;;10.57;41.79
52291;BME280;39663;45.432;28.050;2024-01-07T00:42:33;100227.52;;;10.66;42.36
52291;BME280;39663;45.432;28.050;2024-01-07T00:43:04;100230.27;;;10.96;42.02
52291;BME280;39663;45.432;28.050;2024-01-07T00:43:36;100230.70;;;11.22;42.28
52291;BME280;39663;45.432;28.050;2024-01-07T00:44:07;100232.05;;;11.03;41.95
52291;BME280;39663;45.432;28.050;2024-01-07T00:44:39;100234.23;;;10.01;42.26
52291;BME280;39663;45.432;28.050;2024-01-07T00:45:10;100231.22;;;10.49;42.02
52291;BME280;39663;45.432;28.050;2024-01-07T00:45:42;100230.34;;;10.62;41.94
52291;BME280;39663;45.432;28.050;2024-01-07T00:46:14;100231.78;;;10.80;42.22
52291;BME280;39663;45.432;28.050;2024-01-07T00:46:46;100230.75;;;10.85;42.46
52291;BME280;39663;45.432;28.050;2024-01-07T00:47:17;100230.31;;;11.10;42.40
52291;BME280;39663;45.432;28.050;2024-01-07T00:47:49;100232.07;;;11.29;41.57
52291;BME280;39663;45.432;28.050;2024-01-07T00:48:20;100233.51;;;11.07;42.01
52291;BME280;39663;45.432;28.050;2024-01-07T00:48:51;100231.60;;;11.39;42.16
52291;BME280;39663;45.432;28.050;2024-01-07T00:49:23;100231.26;;;11.53;41.44
52291;BME280;39663;45.432;28.050;2024-01-07T00:49:55;100232.56;;;11.63;41.86
52291;BME280;39663;45.432;28.050;2024-01-07T00:50:26;100233.12;;;11.38;41.55
52291;BME280;39663;45.432;28.050;2024-01-07T00:50:58;100231.93;;;11.60;41.73
52291;BME280;39663;45.432;28.050;2024-01-07T00:51:29;100229.00;;;10.90;41.36
52291;BME280;39663;45.432;28.050;2024-01-07T00:52:01;100229.64;;;11.15;41.98
52291;BME280;39663;45.432;28.050;2024-01-07T00:52:32;100232.66;;;11.28;41.87
52291;BME280;39663;45.432;28.050;2024-01-07T00:53:04;100231.30;;;11.42;41.34
52291;BME280;39663;45.432;28.050;2024-01-07T00:53:36;100232.90;;;11.10;40.85
52291;BME280;39663;45.432;28.050;2024-01-07T00:54:07;100231.28;;;11.02;41.33
52291;BME280;39663;45.432;28.050;2024-01-07T00:54:39;100231.09;;;10.89;41.75
52291;BME280;39663;45.432;28.050;2024-01-07T00:55:10;100229.71;;;10.92;42.43
52291;BME280;39663;45.432;28.050;2024-01-07T00:55:42;100227.54;;;11.09;41.38
52291;BME280;39663;45.432;28.050;2024-01-07T00:56:14;100227.77;;;11.31;41.46
52291;BME280;39663;45.432;28.050;2024-01-07T00:56:45;100228.53;;;10.87;41.92
52291;BME280;39663;45.432;28.050;2024-01-07T00:57:17;100227.64;;;10.85;41.98
52291;BME280;39663;45.432;28.050;2024-01-07T00:57:49;100229.87;;;10.76;42.36
52291;BME280;39663;45.432;28.050;2024-01-07T00:58:20;100231.00;;;11.05;42.31
52291;BME280;39663;45.432;28.050;2024-01-07T00:58:52;100231.52;;;11.21;41.38
52291;BME280;39663;45.432;28.050;2024-01-07T00:59:23;100232.29;;;11.10;41.50
52291;BME280;39663;45.432;28.050;2024-01-07T00:59:55;100230.58;;;11.45;41.95
52291;BME280;39663;45.432;28.050;2024-01-07T01:00:26;100233.64;;;11.39;41.89
52291;BME280;39663;45.432;28.050;2024-01-07T01:00:58;100232.11;;;11.46;40.78
52291;BME280;39663;45.432;28.050;2024-01-07T01:01:29;100231.83;;;11.44;41.56
52291;BME280;39663;45.432;28.050;2024-01-07T01:02:01;100228.85;;;11.49;40.43
52291;BME280;39663;45.432;28.050;2024-01-07T01:02:33;100231.30;;;11.39;40.95
52291;BME280;39663;45.432;28.050;2024-01-07T01:03:04;100230.40;;;11.39;40.06
52291;BME280;39663;45.432;28.050;2024-01-07T01:03:36;100229.65;;;11.05;41.81
52291;BME280;39663;45.432;28.050;2024-01-07T01:04:07;100230.73;;;10.84;41.84
52291;BME280;39663;45.432;28.050;2024-01-07T01:04:39;100230.78;;;11.34;41.57
52291;BME280;39663;45.432;28.050;2024-01-07T01:05:11;100231.09;;;11.41;41.34
52291;BME280;39663;45.432;28.050;2024-01-07T01:05:42;100232.14;;;11.45;41.77
52291;BME280;39663;45.432;28.050;2024-01-07T01:06:14;100229.91;;;11.19;41.03
52291;BME280;39663;45.432;28.050;2024-01-07T01:06:45;100229.93;;;11.18;40.71
52291;BME280;39663;45.432;28.050;2024-01-07T01:07:17;100228.14;;;11.07;40.61
52291;BME280;39663;45.432;28.050;2024-01-07T01:07:48;100228.69;;;11.12;40.77
52291;BME280;39663;45.432;28.050;2024-01-07T01:08:19;100226.94;;;10.88;40.67
52291;BME280;39663;45.432;28.050;2024-01-07T01:08:52;100224.55;;;10.76;41.02
52291;BME280;39663;45.432;28.050;2024-01-07T01:09:23;100223.69;;;11.01;41.99
52291;BME280;39663;45.432;28.050;2024-01-07T01:09:55;100220.83;;;10.84;41.50
52291;BME280;39663;45.432;28.050;2024-01-07T01:10:26;100222.10;;;10.93;42.24
52291;BME280;39663;45.432;28.050;2024-01-07T01:10:58;100220.25;;;11.03;41.84
52291;BME280;39663;45.432;28.050;2024-01-07T01:11:30;100218.16;;;10.79;41.42
52291;BME280;39663;45.432;28.050;2024-01-07T01:12:02;100216.66;;;10.89;41.92
52291;BME280;39663;45.432;28.050;2024-01-07T01:12:33;100214.39;;;10.84;42.02
52291;BME280;39663;45.432;28.050;2024-01-07T01:13:05;100214.98;;;10.36;42.62
52291;BME280;39663;45.432;28.050;2024-01-07T01:14:09;100212.07;;;10.74;42.48
52291;BME280;39663;45.432;28.050;2024-01-07T01:14:42;100210.19;;;10.13;41.75
52291;BME280;39663;45.432;28.050;2024-01-07T01:15:14;100209.68;;;9.91;41.74
52291;BME280;39663;45.432;28.050;2024-01-07T01:15:45;100209.79;;;9.82;42.29
52291;BME280;39663;45.432;28.050;2024-01-07T01:16:17;100210.57;;;10.12;42.98
52291;BME280;39663;45.432;28.050;2024-01-07T01:16:48;100206.78;;;10.41;42.93
52291;BME280;39663;45.432;28.050;2024-01-07T01:17:20;100206.93;;;10.46;42.27
52291;BME280;39663;45.432;28.050;2024-01-07T01:17:52;100208.24;;;10.14;41.95
52291;BME280;39663;45.432;28.050;2024-01-07T01:18:24;100210.09;;;9.97;42.20
52291;BME280;39663;45.432;28.050;2024-01-07T01:18:57;100209.08;;;9.57;42.00
52291;BME280;39663;45.432;28.050;2024-01-07T01:19:33;100208.29;;;10.36;41.52
52291;BME280;39663;45.432;28.050;2024-01-07T01:20:06;100204.66;;;10.44;41.31
52291;BME280;39663;45.432;28.050;2024-01-07T01:20:37;100201.93;;;10.64;41.53
52291;BME280;39663;45.432;28.050;2024-01-07T01:21:10;100200.12;;;10.80;41.51
52291;BME280;39663;45.432;28.050;2024-01-07T01:21:41;100200.99;;;10.88;42.00
52291;BME280;39663;45.432;28.050;2024-01-07T01:22:13;100199.14;;;10.87;41.02
52291;BME280;39663;45.432;28.050;2024-01-07T01:22:44;100199.34;;;10.88;41.15
52291;BME280;39663;45.432;28.050;2024-01-07T01:23:16;100203.08;;;10.32;41.68
52291;BME280;39663;45.432;28.050;2024-01-07T01:23:48;100204.93;;;10.71;42.22
52291;BME280;39663;45.432;28.050;2024-01-07T01:24:20;100206.97;;;10.11;41.86
52291;BME280;39663;45.432;28.050;2024-01-07T01:24:51;100210.04;;;10.33;41.70
52291;BME280;39663;45.432;28.050;2024-01-07T01:25:23;100206.90;;;10.49;42.49
52291;BME280;39663;45.432;28.050;2024-01-07T01:25:54;100205.51;;;10.77;42.45
52291;BME280;39663;45.432;28.050;2024-01-07T01:26:26;100203.94;;;10.95;42.24
52291;BME280;39663;45.432;28.050;2024-01-07T01:26:58;100203.62;;;11.04;41.44
52291;BME280;39663;45.432;28.050;2024-01-07T01:27:29;100201.43;;;10.74;41.47
52291;BME280;39663;45.432;28.050;2024-01-07T01:28:01;100204.20;;;10.89;41.41
52291;BME280;39663;45.432;28.050;2024-01-07T01:28:32;100206.05;;;11.38;41.73
52291;BME280;39663;45.432;28.050;2024-01-07T01:29:04;100208.05;;;10.90;41.59
52291;BME280;39663;45.432;28.050;2024-01-07T01:29:35;100209.78;;;10.94;41.08
52291;BME280;39663;45.432;28.050;2024-01-07T01:30:08;100208.18;;;11.07;41.80
52291;BME280;39663;45.432;28.050;2024-01-07T01:30:40;100210.23;;;10.97;41.85
52291;BME280;39663;45.432;28.050;2024-01-07T01:31:13;100210.57;;;11.01;40.87
52291;BME280;39663;45.432;28.050;2024-01-07T01:31:45;100211.08;;;10.89;40.79
52291;BME280;39663;45.432;28.050;2024-01-07T01:32:16;100217.80;;;9.88;42.43
52291;BME280;39663;45.432;28.050;2024-01-07T01:32:48;100220.08;;;10.59;42.29
52291;BME280;39663;45.432;28.050;2024-01-07T01:33:19;100213.24;;;10.63;42.40
52291;BME280;39663;45.432;28.050;2024-01-07T01:33:51;100212.05;;;10.66;42.08
52291;BME280;39663;45.432;28.050;2024-01-07T01:34:22;100211.85;;;10.81;40.91
52291;BME280;39663;45.432;28.050;2024-01-07T01:34:54;100214.75;;;10.36;42.02
52291;BME280;39663;45.432;28.050;2024-01-07T01:35:25;100216.21;;;10.25;42.93
52291;BME280;39663;45.432;28.050;2024-01-07T01:35:57;100212.99;;;10.84;41.85
52291;BME280;39663;45.432;28.050;2024-01-07T01:36:30;100212.51;;;10.95;42.33
52291;BME280;39663;45.432;28.050;2024-01-07T01:37:03;100211.03;;;10.65;42.26
52291;BME280;39663;45.432;28.050;2024-01-07T01:37:34;100208.44;;;10.70;41.99
52291;BME280;39663;45.432;28.050;2024-01-07T01:38:06;100208.09;;;10.89;42.23
52291;BME280;39663;45.432;28.050;2024-01-07T01:38:37;100209.47;;;11.08;42.06
52291;BME280;39663;45.432;28.050;2024-01-07T01:39:09;100206.61;;;11.10;40.92
52291;BME280;39663;45.432;28.050;2024-01-07T01:39:41;100205.92;;;10.62;41.31
52291;BME280;39663;45.432;28.050;2024-01-07T01:40:13;100206.75;;;10.58;41.86
52291;BME280;39663;45.432;28.050;2024-01-07T01:40:50;100207.57;;;11.25;41.80
52291;BME280;39663;45.432;28.050;2024-01-07T01:41:22;100206.63;;;11.07;41.15
52291;BME280;39663;45.432;28.050;2024-01-07T01:41:53;100210.15;;;10.38;42.13
52291;BME280;39663;45.432;28.050;2024-01-07T01:42:25;100203.67;;;10.51;42.37
52291;BME280;39663;45.432;28.050;2024-01-07T01:42:56;100208.75;;;10.71;42.19
52291;BME280;39663;45.432;28.050;2024-01-07T01:43:28;100208.95;;;10.76;41.89
52291;BME280;39663;45.432;28.050;2024-01-07T01:44:00;100212.86;;;10.66;41.34
52291;BME280;39663;45.432;28.050;2024-01-07T01:44:32;100212.21;;;10.81;41.36
52291;BME280;39663;45.432;28.050;2024-01-07T01:45:05;100213.89;;;10.89;41.42
52291;BME280;39663;45.432;28.050;2024-01-07T01:45:36;100215.88;;;11.00;41.87
52291;BME280;39663;45.432;28.050;2024-01-07T01:46:08;100212.17;;;10.91;40.86
52291;BME280;39663;45.432;28.050;2024-01-07T01:46:40;100213.84;;;11.19;41.70
52291;BME280;39663;45.432;28.050;2024-01-07T01:47:12;100212.28;;;10.90;41.27
52291;BME280;39663;45.432;28.050;2024-01-07T01:47:44;100211.76;;;10.94;41.88
52291;BME280;39663;45.432;28.050;2024-01-07T01:48:16;100208.85;;;10.98;41.41
52291;BME280;39663;45.432;28.050;2024-01-07T01:48:47;100209.76;;;11.02;41.67
52291;BME280;39663;45.432;28.050;2024-01-07T01:49:19;100209.09;;;11.14;41.54
52291;BME280;39663;45.432;28.050;2024-01-07T01:49:50;100210.75;;;11.26;40.70
52291;BME280;39663;45.432;28.050;2024-01-07T01:50:22;100210.00;;;11.17;41.34
52291;BME280;39663;45.432;28.050;2024-01-07T01:50:54;100211.84;;;10.89;40.96
52291;BME280;39663;45.432;28.050;2024-01-07T01:51:26;100210.55;;;10.37;41.43
52291;BME280;39663;45.432;28.050;2024-01-07T01:51:58;100207.09;;;10.70;41.70
52291;BME280;39663;45.432;28.050;2024-01-07T01:52:30;100208.73;;;10.48;41.73
52291;BME280;39663;45.432;28.050;2024-01-07T01:53:01;100209.26;;;10.81;41.14
52291;BME280;39663;45.432;28.050;2024-01-07T01:53:33;100208.72;;;10.49;41.90
52291;BME280;39663;45.432;28.050;2024-01-07T01:54:05;100215.46;;;10.39;41.92
52291;BME280;39663;45.432;28.050;2024-01-07T01:54:37;100214.40;;;10.44;42.38
52291;BME280;39663;45.432;28.050;2024-01-07T01:55:08;100216.87;;;10.55;41.61
52291;BME280;39663;45.432;28.050;2024-01-07T01:55:40;100216.71;;;10.74;42.38
52291;BME280;39663;45.432;28.050;2024-01-07T01:56:12;100211.84;;;10.57;42.25
52291;BME280;39663;45.432;28.050;2024-01-07T01:56:45;100207.46;;;10.70;42.37
52291;BME280;39663;45.432;28.050;2024-01-07T01:57:20;100203.55;;;10.85;41.33
52291;BME280;39663;45.432;28.050;2024-01-07T01:57:53;100205.22;;;10.82;41.53
52291;BME280;39663;45.432;28.050;2024-01-07T01:58:25;100207.13;;;10.48;42.24
52291;BME280;39663;45.432;28.050;2024-01-07T01:58:57;100205.50;;;10.10;42.16
52291;BME280;39663;45.432;28.050;2024-01-07T02:01:36;100189.24;;;9.84;42.74
52291;BME280;39663;45.432;28.050;2024-01-07T02:02:07;100187.65;;;9.87;43.08
52291;BME280;39663;45.432;28.050;2024-01-07T02:02:39;100188.91;;;10.11;42.69
52291;BME280;39663;45.432;28.050;2024-01-07T02:03:10;100187.43;;;10.13;41.98
52291;BME280;39663;45.432;28.050;2024-01-07T02:03:41;100185.44;;;10.17;42.58
52291;BME280;39663;45.432;28.050;2024-01-07T02:04:14;100185.79;;;10.05;42.72
52291;BME280;39663;45.432;28.050;2024-01-07T02:04:46;100188.03;;;9.84;42.72
52291;BME280;39663;45.432;28.050;2024-01-07T02:05:18;100184.62;;;10.02;42.28
52291;BME280;39663;45.432;28.050;2024-01-07T02:05:49;100183.96;;;9.95;41.98
52291;BME280;39663;45.432;28.050;2024-01-07T02:06:22;100183.68;;;10.05;41.98
52291;BME280;39663;45.432;28.050;2024-01-07T02:06:54;100185.69;;;10.12;41.67
52291;BME280;39663;45.432;28.050;2024-01-07T02:07:26;100185.15;;;10.08;42.30
52291;BME280;39663;45.432;28.050;2024-01-07T02:07:59;100184.75;;;10.34;42.22
52291;BME280;39663;45.432;28.050;2024-01-07T02:08:30;100185.72;;;10.28;42.28
52291;BME280;39663;45.432;28.050;2024-01-07T02:09:03;100182.48;;;10.05;42.18
52291;BME280;39663;45.432;28.050;2024-01-07T02:09:34;100182.43;;;10.21;41.97
52291;BME280;39663;45.432;28.050;2024-01-07T02:10:07;100182.85;;;9.72;42.17
52291;BME280;39663;45.432;28.050;2024-01-07T02:10:38;100184.54;;;10.52;41.83
52291;BME280;39663;45.432;28.050;2024-01-07T02:11:18;100179.79;;;10.33;41.43
52291;BME280;39663;45.432;28.050;2024-01-07T02:12:01;100178.52;;;10.89;41.84
52291;BME280;39663;45.432;28.050;2024-01-07T02:12:32;100178.17;;;10.66;41.29
52291;BME280;39663;45.432;28.050;2024-01-07T02:13:04;100178.39;;;10.90;41.62
52291;BME280;39663;45.432;28.050;2024-01-07T02:13:36;100176.82;;;10.39;41.13
52291;BME280;39663;45.432;28.050;2024-01-07T02:14:08;100177.11;;;9.75;41.56
52291;BME280;39663;45.432;28.050;2024-01-07T02:14:40;100173.94;;;9.87;41.65
52291;BME280;39663;45.432;28.050;2024-01-07T02:15:11;100175.59;;;10.47;41.91
52291;BME280;39663;45.432;28.050;2024-01-07T02:15:43;100175.99;;;10.56;41.74
52291;BME280;39663;45.432;28.050;2024-01-07T02:16:15;100177.16;;;10.62;41.81
52291;BME280;39663;45.432;28.050;2024-01-07T02:16:47;100173.66;;;11.11;41.60
52291;BME280;39663;45.432;28.050;2024-01-07T02:17:19;100175.51;;;11.23;40.92
52291;BME280;39663;45.432;28.050;2024-01-07T02:17:51;100172.63;;;11.13;41.17
52291;BME280;39663;45.432;28.050;2024-01-07T02:18:23;100176.07;;;11.19;41.36
52291;BME280;39663;45.432;28.050;2024-01-07T02:18:54;100173.07;;;11.27;41.41
52291;BME280;39663;45.432;28.050;2024-01-07T02:19:25;100173.52;;;11.12;41.21
52291;BME280;39663;45.432;28.050;2024-01-07T02:19:57;100172.13;;;11.30;40.57
52291;BME280;39663;45.432;28.050;2024-01-07T02:20:28;100177.07;;;11.15;41.48
52291;BME280;39663;45.432;28.050;2024-01-07T02:21:00;100178.00;;;10.91;41.30
52291;BME280;39663;45.432;28.050;2024-01-07T02:21:31;100179.80;;;11.18;40.74
52291;BME280;39663;45.432;28.050;2024-01-07T02:22:03;100181.39;;;10.96;41.53
52291;BME280;39663;45.432;28.050;2024-01-07T02:22:35;100181.01;;;10.96;41.17
52291;BME280;39663;45.432;28.050;2024-01-07T02:23:06;100178.67;;;10.81;41.15
52291;BME280;39663;45.432;28.050;2024-01-07T02:23:38;100179.15;;;11.11;41.79
52291;BME280;39663;45.432;28.050;2024-01-07T02:24:16;100179.70;;;11.09;41.58
52291;BME280;39663;45.432;28.050;2024-01-07T02:24:47;100180.65;;;10.93;42.06
52291;BME280;39663;45.432;28.050;2024-01-07T02:25:19;100182.88;;;10.81;41.62
52291;BME280;39663;45.432;28.050;2024-01-07T02:25:50;100176.87;;;11.00;41.55
52291;BME280;39663;45.432;28.050;2024-01-07T02:26:21;100174.64;;;11.25;41.40
52291;BME280;39663;45.432;28.050;2024-01-07T02:26:53;100176.63;;;11.34;41.37
52291;BME280;39663;45.432;28.050;2024-01-07T02:27:24;100177.20;;;10.70;41.08
52291;BME280;39663;45.432;28.050;2024-01-07T02:27:56;100178.41;;;11.16;41.33
52291;BME280;39663;45.432;28.050;2024-01-07T02:28:28;100179.00;;;11.07;41.09
52291;BME280;39663;45.432;28.050;2024-01-07T02:28:59;100178.89;;;10.75;41.20
52291;BME280;39663;45.432;28.050;2024-01-07T02:29:31;100178.89;;;10.76;41.74
52291;BME280;39663;45.432;28.050;2024-01-07T02:30:03;100178.79;;;10.90;41.17
52291;BME280;39663;45.432;28.050;2024-01-07T02:30:34;100178.72;;;10.29;41.64
52291;BME280;39663;45.432;28.050;2024-01-07T02:31:06;100177.33;;;10.58;42.12
52291;BME280;39663;45.432;28.050;2024-01-07T02:31:37;100179.71;;;10.43;42.42
52291;BME280;39663;45.432;28.050;2024-01-07T02:32:09;100182.04;;;10.40;42.09
52291;BME280;39663;45.432;28.050;2024-01-07T02:32:40;100183.88;;;10.30;41.76
52291;BME280;39663;45.432;28.050;2024-01-07T02:33:12;100186.23;;;10.66;42.47
52291;BME280;39663;45.432;28.050;2024-01-07T02:33:43;100188.75;;;10.56;42.49
52291;BME280;39663;45.432;28.050;2024-01-07T02:34:14;100189.00;;;10.78;42.32
52291;BME280;39663;45.432;28.050;2024-01-07T02:34:46;100188.44;;;10.85;41.99
52291;BME280;39663;45.432;28.050;2024-01-07T02:35:17;100189.12;;;10.99;42.14
52291;BME280;39663;45.432;28.050;2024-01-07T02:35:49;100188.66;;;10.84;42.06
52291;BME280;39663;45.432;28.050;2024-01-07T02:36:21;100181.27;;;10.87;41.94
52291;BME280;39663;45.432;28.050;2024-01-07T02:36:52;100179.54;;;10.71;42.05
52291;BME280;39663;45.432;28.050;2024-01-07T02:37:23;100178.08;;;10.80;42.13
52291;BME280;39663;45.432;28.050;2024-01-07T02:37:55;100177.48;;;10.85;41.63
52291;BME280;39663;45.432;28.050;2024-01-07T02:38:26;100178.07;;;10.81;41.66
52291;BME280;39663;45.432;28.050;2024-01-07T02:38:58;100178.70;;;11.09;42.07
52291;BME280;39663;45.432;28.050;2024-01-07T02:39:29;100175.73;;;10.80;41.88
52291;BME280;39663;45.432;28.050;2024-01-07T02:40:01;100176.18;;;10.77;41.80
52291;BME280;39663;45.432;28.050;2024-01-07T02:40:32;100177.69;;;10.79;41.64
52291;BME280;39663;45.432;28.050;2024-01-07T02:41:04;100179.95;;;10.85;41.53
52291;BME280;39663;45.432;28.050;2024-01-07T02:41:36;100180.18;;;10.94;41.49
52291;BME280;39663;45.432;28.050;2024-01-07T02:42:07;100181.92;;;10.37;42.15
52291;BME280;39663;45.432;28.050;2024-01-07T02:42:39;100179.07;;;10.52;42.06
52291;BME280;39663;45.432;28.050;2024-01-07T02:43:10;100177.21;;;10.65;42.44
52291;BME280;39663;45.432;28.050;2024-01-07T02:43:42;100174.36;;;10.61;42.16
52291;BME280;39663;45.432;28.050;2024-01-07T02:44:13;100173.77;;;10.87;42.41
52291;BME280;39663;45.432;28.050;2024-01-07T02:44:45;100171.49;;;10.84;42.14
52291;BME280;39663;45.432;28.050;2024-01-07T02:45:16;100170.39;;;10.47;42.23
52291;BME280;39663;45.432;28.050;2024-01-07T02:45:47;100167.08;;;10.67;42.38
52291;BME280;39663;45.432;28.050;2024-01-07T02:46:20;100167.60;;;10.91;42.00
52291;BME280;39663;45.432;28.050;2024-01-07T02:46:51;100164.44;;;10.91;42.17